sensor_id;sensor_type;location;lat;lon;timestamp;P1;durP1;ratioP1;P2;durP2;ratioP2
55328;SDS011;41205;44.264;19.884;2023-08-24T00:00:55;28.80;;;25.98;;
55328;SDS011;41205;44.264;19.884;2023-08-24T00:03:21;31.58;;;28.40;;
55328;SDS011;41205;44.264;19.884;2023-08-24T00:05:47;31.23;;;28.25;;
55328;SDS011;41205;44.264;19.884;2023-08-24T00:08:13;30.80;;;27.65;;
55328;SDS011;41205;44.264;19.884;2023-08-24T00:10:39;30.00;;;26.92;;
55328;SDS011;41205;44.264;19.884;2023-08-24T00:13:09;29.55;;;26.67;;
55328;SDS011;41205;44.264;19.884;2023-08-24T00:15:35;30.60;;;27.58;;
55328;SDS011;41205;44.264;19.884;2023-08-24T00:18:01;28.23;;;25.63;;
55328;SDS011;41205;44.264;19.884;2023-08-24T00:20:27;30.05;;;27.15;;
55328;SDS011;41205;44.264;19.884;2023-08-24T00:22:53;29.52;;;26.52;;
55328;SDS011;41205;44.264;19.884;2023-08-24T00:25:19;28.08;;;25.13;;
55328;SDS011;41205;44.264;19.884;2023-08-24T00:27:45;29.90;;;26.80;;
55328;SDS011;41205;44.264;19.884;2023-08-24T00:30:10;29.65;;;26.80;;
55328;SDS011;41205;44.264;19.884;2023-08-24T00:32:36;30.25;;;27.02;;
55328;SDS011;41205;44.264;19.884;2023-08-24T00:35:02;30.55;;;27.15;;
55328;SDS011;41205;44.264;19.884;2023-08-24T00:37:31;29.30;;;26.42;;
55328;SDS011;41205;44.264;19.884;2023-08-24T00:39:59;31.15;;;27.90;;
55328;SDS011;41205;44.264;19.884;2023-08-24T00:42:26;30.30;;;27.25;;
55328;SDS011;41205;44.264;19.884;2023-08-24T00:44:52;31.65;;;28.67;;
55328;SDS011;41205;44.264;19.884;2023-08-24T00:47:17;29.08;;;26.15;;
55328;SDS011;41205;44.264;19.884;2023-08-24T00:49:43;30.00;;;27.20;;
55328;SDS011;41205;44.264;19.884;2023-08-24T00:52:09;30.30;;;27.40;;
55328;SDS011;41205;44.264;19.884;2023-08-24T00:54:36;31.92;;;28.70;;
55328;SDS011;41205;44.264;19.884;2023-08-24T00:57:04;28.95;;;26.05;;
55328;SDS011;41205;44.264;19.884;2023-08-24T00:59:30;30.67;;;27.58;;
55328;SDS011;41205;44.264;19.884;2023-08-24T01:01:56;30.23;;;27.25;;
55328;SDS011;41205;44.264;19.884;2023-08-24T01:04:24;28.70;;;25.75;;
55328;SDS011;41205;44.264;19.884;2023-08-24T01:06:50;28.58;;;25.60;;
55328;SDS011;41205;44.264;19.884;2023-08-24T01:09:17;29.40;;;26.58;;
55328;SDS011;41205;44.264;19.884;2023-08-24T01:14:20;29.17;;;26.38;;
55328;SDS011;41205;44.264;19.884;2023-08-24T01:17:05;29.55;;;26.58;;
55328;SDS011;41205;44.264;19.884;2023-08-24T01:19:39;29.08;;;26.38;;
55328;SDS011;41205;44.264;19.884;2023-08-24T01:22:13;29.25;;;26.25;;
55328;SDS011;41205;44.264;19.884;2023-08-24T01:25:12;28.80;;;25.88;;
55328;SDS011;41205;44.264;19.884;2023-08-24T01:27:42;29.23;;;26.23;;
55328;SDS011;41205;44.264;19.884;2023-08-24T01:30:09;29.90;;;26.88;;
55328;SDS011;41205;44.264;19.884;2023-08-24T01:32:36;30.67;;;27.60;;
55328;SDS011;41205;44.264;19.884;2023-08-24T01:35:03;30.50;;;27.70;;
55328;SDS011;41205;44.264;19.884;2023-08-24T01:37:32;30.48;;;27.30;;
55328;SDS011;41205;44.264;19.884;2023-08-24T01:40:15;28.85;;;25.95;;
55328;SDS011;41205;44.264;19.884;2023-08-24T01:45:22;29.70;;;26.58;;
55328;SDS011;41205;44.264;19.884;2023-08-24T01:47:50;28.98;;;26.15;;
55328;SDS011;41205;44.264;19.884;2023-08-24T01:50:18;30.85;;;27.63;;
55328;SDS011;41205;44.264;19.884;2023-08-24T01:52:44;29.92;;;27.10;;
55328;SDS011;41205;44.264;19.884;2023-08-24T01:55:10;32.72;;;29.45;;
55328;SDS011;41205;44.264;19.884;2023-08-24T01:57:37;30.63;;;27.77;;
55328;SDS011;41205;44.264;19.884;2023-08-24T02:00:03;31.73;;;28.52;;
55328;SDS011;41205;44.264;19.884;2023-08-24T02:02:31;33.35;;;29.17;;
55328;SDS011;41205;44.264;19.884;2023-08-24T02:04:59;32.35;;;29.02;;
55328;SDS011;41205;44.264;19.884;2023-08-24T02:07:25;32.33;;;28.00;;
55328;SDS011;41205;44.264;19.884;2023-08-24T02:09:51;31.52;;;28.42;;
55328;SDS011;41205;44.264;19.884;2023-08-24T02:12:16;32.78;;;28.63;;
55328;SDS011;41205;44.264;19.884;2023-08-24T02:14:42;32.67;;;28.90;;
55328;SDS011;41205;44.264;19.884;2023-08-24T02:17:08;29.17;;;26.02;;
55328;SDS011;41205;44.264;19.884;2023-08-24T02:19:33;29.75;;;26.55;;
55328;SDS011;41205;44.264;19.884;2023-08-24T02:21:59;31.90;;;28.35;;
55328;SDS011;41205;44.264;19.884;2023-08-24T02:24:25;30.80;;;27.08;;
55328;SDS011;41205;44.264;19.884;2023-08-24T02:26:51;28.55;;;25.75;;
55328;SDS011;41205;44.264;19.884;2023-08-24T02:29:16;27.30;;;24.58;;
55328;SDS011;41205;44.264;19.884;2023-08-24T02:31:42;26.33;;;23.67;;
55328;SDS011;41205;44.264;19.884;2023-08-24T02:34:08;24.02;;;21.50;;
55328;SDS011;41205;44.264;19.884;2023-08-24T02:36:34;28.10;;;24.73;;
55328;SDS011;41205;44.264;19.884;2023-08-24T02:39:00;26.50;;;23.67;;
55328;SDS011;41205;44.264;19.884;2023-08-24T02:41:26;26.55;;;23.83;;
55328;SDS011;41205;44.264;19.884;2023-08-24T02:43:52;28.02;;;25.05;;
55328;SDS011;41205;44.264;19.884;2023-08-24T02:46:18;27.35;;;24.45;;
55328;SDS011;41205;44.264;19.884;2023-08-24T02:48:45;27.52;;;24.70;;
55328;SDS011;41205;44.264;19.884;2023-08-24T02:51:11;28.00;;;25.48;;
55328;SDS011;41205;44.264;19.884;2023-08-24T02:53:38;28.60;;;25.67;;
55328;SDS011;41205;44.264;19.884;2023-08-24T02:56:03;30.20;;;27.20;;
55328;SDS011;41205;44.264;19.884;2023-08-24T02:58:29;33.30;;;26.77;;
55328;SDS011;41205;44.264;19.884;2023-08-24T03:00:55;30.60;;;26.23;;
55328;SDS011;41205;44.264;19.884;2023-08-24T03:03:21;26.85;;;23.85;;
55328;SDS011;41205;44.264;19.884;2023-08-24T03:05:54;26.55;;;23.83;;
55328;SDS011;41205;44.264;19.884;2023-08-24T03:08:21;24.73;;;22.17;;
55328;SDS011;41205;44.264;19.884;2023-08-24T03:10:46;24.05;;;21.63;;
55328;SDS011;41205;44.264;19.884;2023-08-24T03:13:13;26.60;;;23.20;;
55328;SDS011;41205;44.264;19.884;2023-08-24T03:15:39;26.40;;;23.80;;
55328;SDS011;41205;44.264;19.884;2023-08-24T03:18:04;25.10;;;22.60;;
55328;SDS011;41205;44.264;19.884;2023-08-24T03:20:31;25.42;;;22.23;;
55328;SDS011;41205;44.264;19.884;2023-08-24T03:22:57;26.73;;;23.95;;
55328;SDS011;41205;44.264;19.884;2023-08-24T03:25:23;29.67;;;24.65;;
55328;SDS011;41205;44.264;19.884;2023-08-24T03:27:49;30.90;;;27.63;;
55328;SDS011;41205;44.264;19.884;2023-08-24T03:30:15;27.10;;;24.52;;
55328;SDS011;41205;44.264;19.884;2023-08-24T03:32:41;28.92;;;25.98;;
55328;SDS011;41205;44.264;19.884;2023-08-24T03:35:07;29.58;;;26.50;;
55328;SDS011;41205;44.264;19.884;2023-08-24T03:37:33;30.05;;;27.15;;
55328;SDS011;41205;44.264;19.884;2023-08-24T03:39:58;30.10;;;27.00;;
55328;SDS011;41205;44.264;19.884;2023-08-24T03:42:24;29.05;;;25.98;;
55328;SDS011;41205;44.264;19.884;2023-08-24T03:44:50;30.33;;;27.33;;
55328;SDS011;41205;44.264;19.884;2023-08-24T03:47:16;32.22;;;26.90;;
55328;SDS011;41205;44.264;19.884;2023-08-24T03:49:42;33.15;;;29.15;;
55328;SDS011;41205;44.264;19.884;2023-08-24T03:52:09;29.48;;;26.45;;
55328;SDS011;41205;44.264;19.884;2023-08-24T03:54:34;28.92;;;25.90;;
55328;SDS011;41205;44.264;19.884;2023-08-24T03:57:01;30.73;;;27.63;;
55328;SDS011;41205;44.264;19.884;2023-08-24T03:59:27;29.13;;;26.13;;
55328;SDS011;41205;44.264;19.884;2023-08-24T04:01:53;29.20;;;26.25;;
55328;SDS011;41205;44.264;19.884;2023-08-24T04:04:19;29.77;;;26.98;;
55328;SDS011;41205;44.264;19.884;2023-08-24T04:06:45;28.75;;;26.05;;
55328;SDS011;41205;44.264;19.884;2023-08-24T04:09:10;29.35;;;26.23;;
55328;SDS011;41205;44.264;19.884;2023-08-24T04:11:36;28.42;;;25.58;;
55328;SDS011;41205;44.264;19.884;2023-08-24T04:14:02;29.40;;;26.42;;
55328;SDS011;41205;44.264;19.884;2023-08-24T04:16:28;29.05;;;26.05;;
55328;SDS011;41205;44.264;19.884;2023-08-24T04:18:53;28.48;;;25.70;;
55328;SDS011;41205;44.264;19.884;2023-08-24T04:21:19;27.67;;;24.92;;
55328;SDS011;41205;44.264;19.884;2023-08-24T04:23:45;26.15;;;23.70;;
55328;SDS011;41205;44.264;19.884;2023-08-24T04:26:11;28.08;;;25.35;;
55328;SDS011;41205;44.264;19.884;2023-08-24T04:28:37;23.52;;;21.23;;
55328;SDS011;41205;44.264;19.884;2023-08-24T04:31:03;23.95;;;21.63;;
55328;SDS011;41205;44.264;19.884;2023-08-24T04:33:28;25.30;;;21.30;;
55328;SDS011;41205;44.264;19.884;2023-08-24T04:35:54;23.88;;;21.55;;
55328;SDS011;41205;44.264;19.884;2023-08-24T04:38:20;25.33;;;22.83;;
55328;SDS011;41205;44.264;19.884;2023-08-24T04:40:47;24.27;;;21.77;;
55328;SDS011;41205;44.264;19.884;2023-08-24T04:43:15;24.05;;;21.70;;
55328;SDS011;41205;44.264;19.884;2023-08-24T04:45:41;25.90;;;23.25;;
55328;SDS011;41205;44.264;19.884;2023-08-24T04:48:07;24.08;;;21.60;;
55328;SDS011;41205;44.264;19.884;2023-08-24T04:50:32;24.30;;;22.00;;
55328;SDS011;41205;44.264;19.884;2023-08-24T04:52:58;25.83;;;23.35;;
55328;SDS011;41205;44.264;19.884;2023-08-24T04:55:24;28.08;;;25.48;;
55328;SDS011;41205;44.264;19.884;2023-08-24T04:57:50;30.85;;;26.63;;
55328;SDS011;41205;44.264;19.884;2023-08-24T05:00:16;29.38;;;26.65;;
55328;SDS011;41205;44.264;19.884;2023-08-24T05:02:42;26.92;;;24.20;;
55328;SDS011;41205;44.264;19.884;2023-08-24T05:05:08;27.77;;;25.17;;
55328;SDS011;41205;44.264;19.884;2023-08-24T05:07:39;27.40;;;24.85;;
55328;SDS011;41205;44.264;19.884;2023-08-24T05:10:06;27.35;;;24.17;;
55328;SDS011;41205;44.264;19.884;2023-08-24T05:12:32;26.88;;;24.38;;
55328;SDS011;41205;44.264;19.884;2023-08-24T05:15:01;27.17;;;24.38;;
55328;SDS011;41205;44.264;19.884;2023-08-24T05:17:27;24.77;;;22.25;;
55328;SDS011;41205;44.264;19.884;2023-08-24T05:19:54;26.17;;;23.70;;
55328;SDS011;41205;44.264;19.884;2023-08-24T05:22:20;23.27;;;21.23;;
55328;SDS011;41205;44.264;19.884;2023-08-24T05:24:46;24.83;;;22.52;;
55328;SDS011;41205;44.264;19.884;2023-08-24T05:27:11;24.30;;;22.00;;
55328;SDS011;41205;44.264;19.884;2023-08-24T05:29:37;24.65;;;22.38;;
55328;SDS011;41205;44.264;19.884;2023-08-24T05:32:03;23.65;;;21.17;;
55328;SDS011;41205;44.264;19.884;2023-08-24T05:34:29;21.95;;;19.88;;
55328;SDS011;41205;44.264;19.884;2023-08-24T05:36:55;23.05;;;20.48;;
55328;SDS011;41205;44.264;19.884;2023-08-24T05:39:21;22.20;;;19.83;;
55328;SDS011;41205;44.264;19.884;2023-08-24T05:41:49;23.33;;;21.08;;
55328;SDS011;41205;44.264;19.884;2023-08-24T05:44:16;22.08;;;20.08;;
55328;SDS011;41205;44.264;19.884;2023-08-24T05:46:42;21.63;;;19.48;;
55328;SDS011;41205;44.264;19.884;2023-08-24T05:49:08;22.23;;;20.02;;
55328;SDS011;41205;44.264;19.884;2023-08-24T05:51:34;21.42;;;19.60;;
55328;SDS011;41205;44.264;19.884;2023-08-24T05:54:00;21.90;;;19.80;;
55328;SDS011;41205;44.264;19.884;2023-08-24T05:56:25;20.30;;;18.60;;
55328;SDS011;41205;44.264;19.884;2023-08-24T05:58:51;21.98;;;19.92;;
55328;SDS011;41205;44.264;19.884;2023-08-24T06:01:17;21.92;;;19.73;;
55328;SDS011;41205;44.264;19.884;2023-08-24T06:03:43;21.75;;;19.95;;
55328;SDS011;41205;44.264;19.884;2023-08-24T06:06:08;20.73;;;18.85;;
55328;SDS011;41205;44.264;19.884;2023-08-24T06:08:35;22.00;;;18.90;;
55328;SDS011;41205;44.264;19.884;2023-08-24T06:11:00;20.77;;;18.98;;
55328;SDS011;41205;44.264;19.884;2023-08-24T06:13:26;20.85;;;19.05;;
55328;SDS011;41205;44.264;19.884;2023-08-24T06:15:53;20.80;;;18.83;;
55328;SDS011;41205;44.264;19.884;2023-08-24T06:18:22;20.17;;;18.20;;
55328;SDS011;41205;44.264;19.884;2023-08-24T06:20:47;20.42;;;18.73;;
55328;SDS011;41205;44.264;19.884;2023-08-24T06:23:17;20.95;;;19.30;;
55328;SDS011;41205;44.264;19.884;2023-08-24T06:25:43;20.92;;;19.13;;
55328;SDS011;41205;44.264;19.884;2023-08-24T06:28:10;22.42;;;19.67;;
55328;SDS011;41205;44.264;19.884;2023-08-24T06:30:37;22.65;;;20.55;;
55328;SDS011;41205;44.264;19.884;2023-08-24T06:33:04;20.25;;;18.52;;
55328;SDS011;41205;44.264;19.884;2023-08-24T06:35:30;21.70;;;19.83;;
55328;SDS011;41205;44.264;19.884;2023-08-24T06:37:56;20.25;;;18.45;;
55328;SDS011;41205;44.264;19.884;2023-08-24T06:40:21;20.80;;;18.90;;
55328;SDS011;41205;44.264;19.884;2023-08-24T06:42:47;19.33;;;17.70;;
55328;SDS011;41205;44.264;19.884;2023-08-24T06:45:13;18.70;;;17.10;;
55328;SDS011;41205;44.264;19.884;2023-08-24T06:47:39;21.15;;;19.45;;
55328;SDS011;41205;44.264;19.884;2023-08-24T06:50:05;20.75;;;18.63;;
55328;SDS011;41205;44.264;19.884;2023-08-24T06:52:31;20.85;;;19.05;;
55328;SDS011;41205;44.264;19.884;2023-08-24T06:54:57;21.10;;;19.30;;
55328;SDS011;41205;44.264;19.884;2023-08-24T06:57:24;20.95;;;19.38;;
55328;SDS011;41205;44.264;19.884;2023-08-24T06:59:50;20.15;;;18.30;;
55328;SDS011;41205;44.264;19.884;2023-08-24T07:02:16;19.02;;;17.73;;
55328;SDS011;41205;44.264;19.884;2023-08-24T07:04:43;20.15;;;18.55;;
55328;SDS011;41205;44.264;19.884;2023-08-24T07:07:09;21.40;;;19.70;;
55328;SDS011;41205;44.264;19.884;2023-08-24T07:09:35;20.20;;;18.58;;
55328;SDS011;41205;44.264;19.884;2023-08-24T07:12:01;19.63;;;17.90;;
55328;SDS011;41205;44.264;19.884;2023-08-24T07:14:28;21.77;;;19.85;;
55328;SDS011;41205;44.264;19.884;2023-08-24T07:16:54;20.98;;;18.85;;
55328;SDS011;41205;44.264;19.884;2023-08-24T07:19:19;20.38;;;18.92;;
55328;SDS011;41205;44.264;19.884;2023-08-24T07:21:46;21.30;;;19.67;;
55328;SDS011;41205;44.264;19.884;2023-08-24T07:24:11;19.65;;;17.85;;
55328;SDS011;41205;44.264;19.884;2023-08-24T07:26:37;21.35;;;19.55;;
55328;SDS011;41205;44.264;19.884;2023-08-24T07:29:03;19.88;;;18.20;;
55328;SDS011;41205;44.264;19.884;2023-08-24T07:31:28;21.10;;;18.80;;
55328;SDS011;41205;44.264;19.884;2023-08-24T07:33:54;20.65;;;18.65;;
55328;SDS011;41205;44.264;19.884;2023-08-24T07:36:20;19.55;;;18.05;;
55328;SDS011;41205;44.264;19.884;2023-08-24T07:38:45;20.38;;;18.42;;
55328;SDS011;41205;44.264;19.884;2023-08-24T07:41:14;19.77;;;17.77;;
55328;SDS011;41205;44.264;19.884;2023-08-24T07:43:43;19.02;;;17.58;;
55328;SDS011;41205;44.264;19.884;2023-08-24T07:46:09;19.35;;;17.55;;
55328;SDS011;41205;44.264;19.884;2023-08-24T07:48:36;19.73;;;18.15;;
55328;SDS011;41205;44.264;19.884;2023-08-24T07:51:02;17.73;;;16.10;;
55328;SDS011;41205;44.264;19.884;2023-08-24T07:53:37;18.08;;;16.67;;
55328;SDS011;41205;44.264;19.884;2023-08-24T07:56:06;18.77;;;17.25;;
55328;SDS011;41205;44.264;19.884;2023-08-24T07:58:32;20.92;;;19.10;;
55328;SDS011;41205;44.264;19.884;2023-08-24T08:00:59;18.45;;;17.05;;
55328;SDS011;41205;44.264;19.884;2023-08-24T08:03:25;19.55;;;18.08;;
55328;SDS011;41205;44.264;19.884;2023-08-24T08:05:52;18.40;;;16.90;;
55328;SDS011;41205;44.264;19.884;2023-08-24T08:08:18;18.48;;;17.15;;
55328;SDS011;41205;44.264;19.884;2023-08-24T08:10:44;19.83;;;18.52;;
55328;SDS011;41205;44.264;19.884;2023-08-24T08:13:11;19.45;;;17.80;;
55328;SDS011;41205;44.264;19.884;2023-08-24T08:15:37;19.42;;;18.00;;
55328;SDS011;41205;44.264;19.884;2023-08-24T08:18:04;20.63;;;19.10;;
55328;SDS011;41205;44.264;19.884;2023-08-24T08:20:30;19.40;;;17.77;;
55328;SDS011;41205;44.264;19.884;2023-08-24T08:22:56;20.25;;;18.50;;
55328;SDS011;41205;44.264;19.884;2023-08-24T08:25:22;18.45;;;17.05;;
55328;SDS011;41205;44.264;19.884;2023-08-24T08:27:49;17.23;;;15.73;;
55328;SDS011;41205;44.264;19.884;2023-08-24T08:30:15;17.98;;;16.67;;
55328;SDS011;41205;44.264;19.884;2023-08-24T08:32:41;18.80;;;17.35;;
55328;SDS011;41205;44.264;19.884;2023-08-24T08:35:08;18.73;;;17.33;;
55328;SDS011;41205;44.264;19.884;2023-08-24T08:37:34;19.45;;;17.85;;
55328;SDS011;41205;44.264;19.884;2023-08-24T08:40:02;17.33;;;15.85;;
55328;SDS011;41205;44.264;19.884;2023-08-24T08:42:31;16.55;;;15.48;;
55328;SDS011;41205;44.264;19.884;2023-08-24T08:44:58;16.92;;;14.88;;
55328;SDS011;41205;44.264;19.884;2023-08-24T08:47:27;14.68;;;13.35;;
55328;SDS011;41205;44.264;19.884;2023-08-24T08:49:53;13.25;;;12.05;;
55328;SDS011;41205;44.264;19.884;2023-08-24T08:52:21;14.18;;;12.80;;
55328;SDS011;41205;44.264;19.884;2023-08-24T08:54:47;13.25;;;11.98;;
55328;SDS011;41205;44.264;19.884;2023-08-24T08:57:14;14.18;;;12.75;;
55328;SDS011;41205;44.264;19.884;2023-08-24T08:59:41;14.68;;;13.07;;
55328;SDS011;41205;44.264;19.884;2023-08-24T09:02:07;13.93;;;12.63;;
55328;SDS011;41205;44.264;19.884;2023-08-24T09:04:38;15.10;;;12.88;;
55328;SDS011;41205;44.264;19.884;2023-08-24T09:07:04;14.40;;;12.90;;
55328;SDS011;41205;44.264;19.884;2023-08-24T09:09:35;13.95;;;12.55;;
55328;SDS011;41205;44.264;19.884;2023-08-24T09:12:02;14.15;;;12.95;;
55328;SDS011;41205;44.264;19.884;2023-08-24T09:14:30;15.23;;;12.90;;
55328;SDS011;41205;44.264;19.884;2023-08-24T09:16:55;14.55;;;13.15;;
55328;SDS011;41205;44.264;19.884;2023-08-24T09:19:27;12.82;;;11.73;;
55328;SDS011;41205;44.264;19.884;2023-08-24T09:21:58;12.40;;;11.40;;
55328;SDS011;41205;44.264;19.884;2023-08-24T09:24:29;14.10;;;12.88;;
55328;SDS011;41205;44.264;19.884;2023-08-24T09:26:59;13.90;;;11.90;;
55328;SDS011;41205;44.264;19.884;2023-08-24T09:29:28;12.68;;;11.55;;
55328;SDS011;41205;44.264;19.884;2023-08-24T09:32:01;13.07;;;11.85;;
55328;SDS011;41205;44.264;19.884;2023-08-24T09:34:27;15.70;;;12.10;;
55328;SDS011;41205;44.264;19.884;2023-08-24T09:36:56;13.48;;;11.48;;
55328;SDS011;41205;44.264;19.884;2023-08-24T09:39:22;11.48;;;10.50;;
55328;SDS011;41205;44.264;19.884;2023-08-24T09:41:51;14.10;;;11.57;;
55328;SDS011;41205;44.264;19.884;2023-08-24T09:44:17;13.52;;;12.25;;
55328;SDS011;41205;44.264;19.884;2023-08-24T09:46:43;12.38;;;11.35;;
55328;SDS011;41205;44.264;19.884;2023-08-24T09:49:10;11.02;;;9.93;;
55328;SDS011;41205;44.264;19.884;2023-08-24T09:51:37;11.93;;;10.85;;
55328;SDS011;41205;44.264;19.884;2023-08-24T09:54:05;11.35;;;9.80;;
55328;SDS011;41205;44.264;19.884;2023-08-24T09:56:37;11.75;;;10.13;;
55328;SDS011;41205;44.264;19.884;2023-08-24T09:59:13;13.27;;;11.38;;
55328;SDS011;41205;44.264;19.884;2023-08-24T10:01:42;11.27;;;10.00;;
55328;SDS011;41205;44.264;19.884;2023-08-24T10:04:09;12.27;;;10.63;;
55328;SDS011;41205;44.264;19.884;2023-08-24T10:06:37;17.48;;;11.18;;
55328;SDS011;41205;44.264;19.884;2023-08-24T10:09:06;10.88;;;9.88;;
55328;SDS011;41205;44.264;19.884;2023-08-24T10:11:34;12.20;;;11.20;;
55328;SDS011;41205;44.264;19.884;2023-08-24T10:16:27;14.10;;;10.90;;
55328;SDS011;41205;44.264;19.884;2023-08-24T10:18:54;11.73;;;10.60;;
55328;SDS011;41205;44.264;19.884;2023-08-24T10:21:21;10.65;;;9.75;;
55328;SDS011;41205;44.264;19.884;2023-08-24T10:23:51;11.30;;;10.27;;
55328;SDS011;41205;44.264;19.884;2023-08-24T10:26:18;11.52;;;10.20;;
55328;SDS011;41205;44.264;19.884;2023-08-24T10:28:46;14.70;;;10.13;;
55328;SDS011;41205;44.264;19.884;2023-08-24T10:31:12;11.38;;;10.20;;
55328;SDS011;41205;44.264;19.884;2023-08-24T10:33:38;12.52;;;9.90;;
55328;SDS011;41205;44.264;19.884;2023-08-24T10:36:06;11.88;;;10.05;;
55328;SDS011;41205;44.264;19.884;2023-08-24T10:38:34;12.23;;;10.90;;
55328;SDS011;41205;44.264;19.884;2023-08-24T10:41:02;12.05;;;10.85;;
55328;SDS011;41205;44.264;19.884;2023-08-24T10:43:29;12.13;;;10.20;;
55328;SDS011;41205;44.264;19.884;2023-08-24T10:45:55;10.60;;;9.70;;
55328;SDS011;41205;44.264;19.884;2023-08-24T10:48:28;11.82;;;10.68;;
55328;SDS011;41205;44.264;19.884;2023-08-24T10:51:28;11.60;;;10.50;;
55328;SDS011;41205;44.264;19.884;2023-08-24T10:56:14;11.85;;;10.50;;
55328;SDS011;41205;44.264;19.884;2023-08-24T10:58:41;9.30;;;8.40;;
55328;SDS011;41205;44.264;19.884;2023-08-24T11:01:13;13.82;;;9.05;;
55328;SDS011;41205;44.264;19.884;2023-08-24T11:03:40;11.05;;;9.93;;
55328;SDS011;41205;44.264;19.884;2023-08-24T11:06:20;12.23;;;7.45;;
55328;SDS011;41205;44.264;19.884;2023-08-24T11:08:47;8.77;;;7.45;;
55328;SDS011;41205;44.264;19.884;2023-08-24T11:11:22;9.60;;;8.73;;
55328;SDS011;41205;44.264;19.884;2023-08-24T11:16:41;9.60;;;8.63;;
55328;SDS011;41205;44.264;19.884;2023-08-24T11:19:08;9.30;;;8.40;;
55328;SDS011;41205;44.264;19.884;2023-08-24T11:21:34;8.73;;;7.82;;
55328;SDS011;41205;44.264;19.884;2023-08-24T11:24:01;9.95;;;8.68;;
55328;SDS011;41205;44.264;19.884;2023-08-24T11:26:29;11.85;;;7.80;;
55328;SDS011;41205;44.264;19.884;2023-08-24T11:28:55;8.23;;;7.07;;
55328;SDS011;41205;44.264;19.884;2023-08-24T11:31:23;13.80;;;8.93;;
55328;SDS011;41205;44.264;19.884;2023-08-24T11:33:53;9.32;;;8.40;;
55328;SDS011;41205;44.264;19.884;2023-08-24T11:38:57;9.02;;;8.13;;
55328;SDS011;41205;44.264;19.884;2023-08-24T11:41:23;8.98;;;8.10;;
55328;SDS011;41205;44.264;19.884;2023-08-24T11:43:49;10.05;;;8.35;;
55328;SDS011;41205;44.264;19.884;2023-08-24T11:46:16;10.88;;;9.50;;
55328;SDS011;41205;44.264;19.884;2023-08-24T11:48:43;10.15;;;8.40;;
55328;SDS011;41205;44.264;19.884;2023-08-24T11:51:11;10.10;;;7.88;;
55328;SDS011;41205;44.264;19.884;2023-08-24T11:53:44;9.68;;;7.43;;
55328;SDS011;41205;44.264;19.884;2023-08-24T11:56:11;9.68;;;8.02;;
55328;SDS011;41205;44.264;19.884;2023-08-24T11:58:41;9.80;;;7.82;;
55328;SDS011;41205;44.264;19.884;2023-08-24T12:01:08;8.68;;;7.75;;
55328;SDS011;41205;44.264;19.884;2023-08-24T12:03:36;9.23;;;8.35;;
55328;SDS011;41205;44.264;19.884;2023-08-24T12:06:14;8.93;;;7.72;;
55328;SDS011;41205;44.264;19.884;2023-08-24T12:08:42;10.32;;;7.85;;
55328;SDS011;41205;44.264;19.884;2023-08-24T12:11:14;9.13;;;8.32;;
55328;SDS011;41205;44.264;19.884;2023-08-24T12:13:45;8.98;;;8.02;;
55328;SDS011;41205;44.264;19.884;2023-08-24T12:16:14;9.63;;;8.35;;
55328;SDS011;41205;44.264;19.884;2023-08-24T12:21:16;10.80;;;8.23;;
55328;SDS011;41205;44.264;19.884;2023-08-24T12:23:42;9.48;;;8.52;;
55328;SDS011;41205;44.264;19.884;2023-08-24T12:26:08;9.85;;;8.02;;
55328;SDS011;41205;44.264;19.884;2023-08-24T12:28:42;8.65;;;7.85;;
55328;SDS011;41205;44.264;19.884;2023-08-24T12:31:08;10.48;;;9.25;;
55328;SDS011;41205;44.264;19.884;2023-08-24T12:33:34;10.40;;;8.07;;
55328;SDS011;41205;44.264;19.884;2023-08-24T12:36:00;9.50;;;7.85;;
55328;SDS011;41205;44.264;19.884;2023-08-24T12:38:26;9.80;;;7.85;;
55328;SDS011;41205;44.264;19.884;2023-08-24T12:40:52;9.30;;;8.48;;
55328;SDS011;41205;44.264;19.884;2023-08-24T12:43:18;11.35;;;8.02;;
55328;SDS011;41205;44.264;19.884;2023-08-24T12:45:44;11.93;;;8.48;;
55328;SDS011;41205;44.264;19.884;2023-08-24T12:48:10;10.43;;;7.95;;
55328;SDS011;41205;44.264;19.884;2023-08-24T12:50:37;9.57;;;8.15;;
55328;SDS011;41205;44.264;19.884;2023-08-24T12:53:03;14.10;;;9.13;;
55328;SDS011;41205;44.264;19.884;2023-08-24T12:55:31;9.27;;;8.23;;
55328;SDS011;41205;44.264;19.884;2023-08-24T12:57:58;10.10;;;7.72;;
55328;SDS011;41205;44.264;19.884;2023-08-24T13:00:24;9.27;;;8.27;;
55328;SDS011;41205;44.264;19.884;2023-08-24T13:02:50;10.52;;;8.27;;
55328;SDS011;41205;44.264;19.884;2023-08-24T13:05:16;9.23;;;8.05;;
55328;SDS011;41205;44.264;19.884;2023-08-24T13:07:42;12.00;;;8.13;;
55328;SDS011;41205;44.264;19.884;2023-08-24T13:10:08;11.18;;;8.30;;
55328;SDS011;41205;44.264;19.884;2023-08-24T13:12:34;9.77;;;8.73;;
55328;SDS011;41205;44.264;19.884;2023-08-24T13:15:00;9.32;;;7.90;;
55328;SDS011;41205;44.264;19.884;2023-08-24T13:17:27;9.77;;;8.40;;
55328;SDS011;41205;44.264;19.884;2023-08-24T13:19:54;10.27;;;7.50;;
55328;SDS011;41205;44.264;19.884;2023-08-24T13:22:20;9.07;;;8.27;;
55328;SDS011;41205;44.264;19.884;2023-08-24T13:24:45;9.77;;;8.48;;
55328;SDS011;41205;44.264;19.884;2023-08-24T13:27:11;9.82;;;6.72;;
55328;SDS011;41205;44.264;19.884;2023-08-24T13:29:37;10.95;;;8.65;;
55328;SDS011;41205;44.264;19.884;2023-08-24T13:32:03;10.23;;;8.13;;
55328;SDS011;41205;44.264;19.884;2023-08-24T13:34:30;9.20;;;7.78;;
55328;SDS011;41205;44.264;19.884;2023-08-24T13:36:59;8.25;;;7.55;;
55328;SDS011;41205;44.264;19.884;2023-08-24T13:39:25;10.23;;;7.85;;
55328;SDS011;41205;44.264;19.884;2023-08-24T13:41:53;10.40;;;7.50;;
55328;SDS011;41205;44.264;19.884;2023-08-24T13:44:19;8.30;;;7.50;;
55328;SDS011;41205;44.264;19.884;2023-08-24T13:46:45;9.05;;;8.07;;
55328;SDS011;41205;44.264;19.884;2023-08-24T13:49:11;8.60;;;7.78;;
55328;SDS011;41205;44.264;19.884;2023-08-24T13:51:37;9.05;;;7.43;;
55328;SDS011;41205;44.264;19.884;2023-08-24T13:54:03;8.57;;;7.45;;
55328;SDS011;41205;44.264;19.884;2023-08-24T13:56:37;9.55;;;8.73;;
55328;SDS011;41205;44.264;19.884;2023-08-24T13:59:03;7.72;;;7.03;;
55328;SDS011;41205;44.264;19.884;2023-08-24T14:01:29;11.35;;;7.22;;
55328;SDS011;41205;44.264;19.884;2023-08-24T14:03:54;11.13;;;8.07;;
55328;SDS011;41205;44.264;19.884;2023-08-24T14:06:20;8.80;;;7.80;;
55328;SDS011;41205;44.264;19.884;2023-08-24T14:08:46;11.27;;;7.72;;
55328;SDS011;41205;44.264;19.884;2023-08-24T14:11:11;11.05;;;8.85;;
55328;SDS011;41205;44.264;19.884;2023-08-24T14:13:38;8.68;;;7.78;;
55328;SDS011;41205;44.264;19.884;2023-08-24T14:16:03;8.88;;;7.97;;
55328;SDS011;41205;44.264;19.884;2023-08-24T14:18:29;7.80;;;7.03;;
55328;SDS011;41205;44.264;19.884;2023-08-24T14:20:55;12.00;;;7.38;;
55328;SDS011;41205;44.264;19.884;2023-08-24T14:23:21;10.43;;;7.85;;
55328;SDS011;41205;44.264;19.884;2023-08-24T14:25:47;8.18;;;7.38;;
55328;SDS011;41205;44.264;19.884;2023-08-24T14:28:13;10.27;;;7.95;;
55328;SDS011;41205;44.264;19.884;2023-08-24T14:30:39;8.88;;;7.38;;